Time;durP1;ratioP1;P1;durP2;ratioP2;P2;SDS_P1;SDS_P2;PMS_P1;PMS_P2;Temp;Humidity;BMP_temperature;BMP_pressure;BME280_temperature;BME280_humidity;BME280_pressure;Samples;Min_cycle;Max_cycle;Signal;HPM_P1;HPM_P2
2022/01/04 00:01:04;;;;;;;9.43;5.28;;;;;;;6.61;86.60;99553.09;10337559;28;20105;-74
2022/01/04 00:06:04;;;;;;;11.25;5.60;;;;;;;6.56;86.99;99555.34;10338786;28;20030;-74
2022/01/04 00:11:15;;;;;;;11.40;5.65;;;;;;;6.54;87.02;99554.69;10337522;28;20103;-74
2022/01/04 00:16:15;;;;;;;10.68;5.45;;;;;;;6.46;88.09;99536.16;10336957;28;20408;-74
2022/01/04 00:21:16;;;;;;;12.57;6.23;;;;;;;6.39;87.33;99528.03;10338011;28;20080;-74
2022/01/04 00:26:16;;;;;;;11.20;5.93;;;;;;;6.30;87.53;99517.56;10354763;28;20030;-74
2022/01/04 00:31:16;;;;;;;9.07;5.23;;;;;;;6.29;88.19;99513.28;10335562;28;20042;-74
2022/01/04 00:36:17;;;;;;;12.67;6.87;;;;;;;6.25;88.40;99504.84;10335191;28;20038;-73
2022/01/04 00:41:17;;;;;;;16.43;6.67;;;;;;;6.26;87.92;99511.75;10339857;28;20031;-74
2022/01/04 00:46:17;;;;;;;11.50;6.22;;;;;;;6.32;87.88;99507.72;10337342;28;20036;-74
2022/01/04 00:51:17;;;;;;;13.07;5.80;;;;;;;6.35;87.94;99494.25;10336586;28;20038;-74
2022/01/04 00:56:18;;;;;;;12.35;5.63;;;;;;;6.37;87.69;99479.13;10335881;28;20057;-74
2022/01/04 01:01:18;;;;;;;13.77;6.72;;;;;;;6.52;87.32;99465.28;10337511;28;20105;-74
2022/01/04 01:06:19;;;;;;;13.70;6.47;;;;;;;6.59;87.00;99461.09;10333717;28;20037;-73
2022/01/04 01:11:19;;;;;;;14.77;6.47;;;;;;;6.60;86.59;99456.66;10333202;28;20037;-73
2022/01/04 01:16:20;;;;;;;11.20;5.90;;;;;;;6.70;87.05;99451.28;10335543;28;20057;-74
2022/01/04 01:21:20;;;;;;;12.57;6.17;;;;;;;6.72;86.70;99430.88;10335741;28;20285;-73
2022/01/04 01:26:20;;;;;;;14.63;5.47;;;;;;;6.72;85.92;99426.44;10336924;28;20106;-74
2022/01/04 01:31:21;;;;;;;13.97;5.67;;;;;;;6.67;86.39;99414.72;10332577;28;20045;-74
2022/01/04 01:36:21;;;;;;;10.07;5.90;;;;;;;6.47;86.21;99408.78;10334002;28;20030;-74
2022/01/04 01:41:21;;;;;;;10.87;6.17;;;;;;;6.44;87.51;99417.81;10318982;28;20088;-74
2022/01/04 01:46:22;;;;;;;13.20;5.60;;;;;;;6.50;86.94;99405.84;10332238;28;20379;-74
2022/01/04 01:51:24;;;;;;;13.57;5.85;;;;;;;6.50;87.34;99390.88;10333229;28;20469;-73
2022/01/04 01:56:24;;;;;;;12.95;5.90;;;;;;;6.47;86.95;99387.72;10330764;28;20109;-74
2022/01/04 02:01:25;;;;;;;15.27;6.63;;;;;;;6.43;87.46;99384.59;10330830;28;20581;-73
2022/01/04 02:06:29;;;;;;;16.15;6.45;;;;;;;6.43;86.60;99375.84;10343739;28;20552;-73
2022/01/04 02:11:30;;;;;;;18.40;6.70;;;;;;;6.42;87.38;99377.66;10328012;28;20045;-73
2022/01/04 02:16:31;;;;;;;15.02;6.60;;;;;;;6.46;86.95;99372.91;10331910;28;20062;-73
2022/01/04 02:21:33;;;;;;;19.35;6.25;;;;;;;6.45;87.86;99363.34;10333526;28;20422;-73
2022/01/04 02:26:33;;;;;;;15.30;6.32;;;;;;;6.44;87.35;99356.44;10339400;28;20085;-72
2022/01/04 02:31:35;;;;;;;13.13;6.40;;;;;;;6.54;86.69;99338.75;10365861;28;20037;-73
2022/01/04 02:36:40;;;;;;;16.45;6.45;;;;;;;6.65;86.26;99338.50;10329107;28;20060;-73
2022/01/04 02:41:40;;;;;;;10.77;5.50;;;;;;;6.71;86.05;99324.72;10327424;28;20061;-73
2022/01/04 02:46:41;;;;;;;14.87;5.37;;;;;;;6.71;85.77;99306.28;10333113;28;20468;-74
2022/01/04 02:51:41;;;;;;;12.23;5.03;;;;;;;6.63;85.49;99314.13;10328041;28;20357;-74
2022/01/04 02:56:42;;;;;;;14.52;5.28;;;;;;;6.53;86.02;99308.94;10330854;28;20436;-74
2022/01/04 03:01:42;;;;;;;12.57;5.53;;;;;;;6.49;86.82;99306.78;10336547;28;20073;-74
2022/01/04 03:06:43;;;;;;;10.40;4.87;;;;;;;6.56;86.13;99284.94;10350111;28;20437;-74
2022/01/04 03:11:43;;;;;;;10.40;4.18;;;;;;;6.70;86.48;99280.91;10330175;28;20030;-74
2022/01/04 03:16:44;;;;;;;8.87;4.50;;;;;;;6.78;85.97;99273.03;10336304;28;20034;-73
2022/01/04 03:21:44;;;;;;;10.75;4.40;;;;;;;6.87;85.74;99260.72;10332886;28;20084;-73
2022/01/04 03:26:45;;;;;;;10.60;4.50;;;;;;;6.88;85.40;99257.94;10331955;28;20117;-74
2022/01/04 03:31:45;;;;;;;14.27;5.10;;;;;;;6.90;85.56;99244.63;10328045;28;20276;-74
2022/01/04 03:36:45;;;;;;;9.60;4.50;;;;;;;6.90;84.57;99234.88;10335429;28;20053;-74
2022/01/04 03:41:46;;;;;;;13.63;4.53;;;;;;;6.90;85.32;99229.59;10334987;28;20034;-73
2022/01/04 03:46:49;;;;;;;14.77;5.32;;;;;;;6.78;86.14;99220.34;10337537;28;20034;-73
2022/01/04 03:51:49;;;;;;;16.23;5.70;;;;;;;6.70;86.80;99215.06;10338446;28;20114;-74
2022/01/04 03:56:50;;;;;;;13.50;4.82;;;;;;;6.63;87.26;99207.94;10332294;28;20433;-74
2022/01/04 04:01:50;;;;;;;12.00;5.28;;;;;;;6.53;86.59;99208.06;10329374;28;20389;-74
2022/01/04 04:06:50;;;;;;;14.33;4.87;;;;;;;6.44;86.82;99199.28;10342781;28;20026;-74
2022/01/04 04:11:51;;;;;;;13.75;4.93;;;;;;;6.46;87.53;99176.28;10336362;28;20045;-73
2022/01/04 04:16:51;;;;;;;10.00;4.50;;;;;;;6.52;87.39;99166.91;10336881;28;20053;-73
2022/01/04 04:21:51;;;;;;;6.78;2.95;;;;;;;6.56;87.22;99155.91;10336510;28;20038;-74
2022/01/04 04:26:52;;;;;;;8.00;4.07;;;;;;;6.53;87.69;99150.13;10335848;28;20038;-74
2022/01/04 04:31:52;;;;;;;10.23;3.75;;;;;;;6.50;87.62;99145.16;10335848;28;20073;-74
2022/01/04 04:36:52;;;;;;;6.17;2.43;;;;;;;6.48;87.48;99137.44;10335885;28;20580;-74
2022/01/04 04:41:53;;;;;;;5.00;2.35;;;;;;;6.50;88.13;99132.00;10359041;28;20038;-75
2022/01/04 04:46:53;;;;;;;6.57;2.80;;;;;;;6.46;87.16;99122.78;10344652;28;20042;-74
2022/01/04 04:51:56;;;;;;;7.33;2.87;;;;;;;6.48;87.09;99120.81;10334887;28;20026;-75
2022/01/04 04:56:57;;;;;;;4.55;2.53;;;;;;;6.52;87.25;99111.63;10336097;28;20084;-74
2022/01/04 05:01:57;;;;;;;4.65;2.45;;;;;;;6.50;87.73;99103.03;10334588;28;20085;-73
2022/01/04 05:06:58;;;;;;;5.97;2.42;;;;;;;6.50;87.20;99095.13;10335004;28;20065;-74
2022/01/04 05:11:58;;;;;;;5.93;2.40;;;;;;;6.48;87.39;99076.88;10335760;28;20117;-74
2022/01/04 05:16:59;;;;;;;4.10;2.00;;;;;;;6.44;87.14;99078.16;10334224;28;20393;-74
2022/01/04 05:21:59;;;;;;;6.13;2.40;;;;;;;6.50;87.29;99074.06;10338900;28;20038;-74
2022/01/04 05:27:00;;;;;;;6.40;2.97;;;;;;;6.53;86.64;99055.31;10338505;28;20125;-74
2022/01/04 05:32:00;;;;;;;4.78;2.22;;;;;;;6.58;86.56;99048.59;10330282;28;20113;-73
2022/01/04 05:37:01;;;;;;;6.73;3.00;;;;;;;6.56;86.91;99047.94;10331158;28;20089;-75
2022/01/04 05:42:02;;;;;;;7.15;2.40;;;;;;;6.52;86.68;99036.06;10330190;28;20547;-73
2022/01/04 05:47:04;;;;;;;5.13;2.58;;;;;;;6.50;86.72;99029.31;10331483;28;20034;-74
2022/01/04 05:52:05;;;;;;;8.80;3.03;;;;;;;6.48;86.81;99031.28;10332715;28;20393;-74
2022/01/04 05:57:05;;;;;;;7.30;2.63;;;;;;;6.50;86.63;99034.59;10333106;28;20046;-75
2022/01/04 06:02:05;;;;;;;5.85;2.78;;;;;;;6.50;85.21;99022.25;10332140;28;20030;-74
2022/01/04 06:07:06;;;;;;;4.83;2.40;;;;;;;6.42;85.70;99005.59;10333833;28;20034;-75
2022/01/04 06:14:50;;;;;;;4.70;2.53;;;;;;;6.42;86.05;99014.34;10331911;28;20073;-74
2022/01/04 06:17:29;;;;;;;6.75;2.78;;;;;;;6.41;86.38;99012.69;10331114;28;20278;-74
2022/01/04 06:22:30;;;;;;;5.25;2.78;;;;;;;6.47;85.40;99029.63;10347776;28;20092;-74
2022/01/04 06:27:30;;;;;;;5.60;2.47;;;;;;;6.54;85.70;99028.03;10334164;28;20445;-74
2022/01/04 06:32:30;;;;;;;5.93;2.30;;;;;;;6.59;85.76;99017.81;10330474;28;20046;-74
2022/01/04 06:37:32;;;;;;;5.43;2.70;;;;;;;6.55;84.82;99027.84;10331394;28;20022;-74
2022/01/04 06:42:32;;;;;;;5.20;2.40;;;;;;;6.51;84.62;99010.75;10330770;28;20034;-74
2022/01/04 06:47:33;;;;;;;6.28;2.80;;;;;;;6.49;85.49;98990.81;10339010;28;20034;-73
2022/01/04 06:52:33;;;;;;;5.07;2.47;;;;;;;6.51;85.46;98988.84;10330500;28;20030;-74
2022/01/04 06:57:33;;;;;;;5.43;2.37;;;;;;;6.49;85.46;98986.38;10342430;28;20488;-73
2022/01/04 07:02:34;;;;;;;7.03;2.60;;;;;;;6.61;84.86;98989.50;10326195;28;20297;-74
2022/01/04 07:07:34;;;;;;;5.70;2.73;;;;;;;6.64;84.85;98973.38;10353891;28;20088;-74
2022/01/04 07:12:34;;;;;;;5.80;2.50;;;;;;;6.69;83.96;98978.97;10342740;28;20038;-74
2022/01/04 07:17:38;;;;;;;5.50;2.53;;;;;;;6.70;84.36;98982.44;10349477;28;20466;-74
2022/01/04 07:22:38;;;;;;;6.78;2.50;;;;;;;6.70;84.40;98978.00;10336291;28;20038;-74
2022/01/04 07:27:38;;;;;;;3.72;2.20;;;;;;;6.68;84.37;98974.72;10345142;28;20441;-74
2022/01/04 07:32:39;;;;;;;6.38;3.00;;;;;;;6.69;84.85;98978.16;10315847;28;20039;-73
2022/01/04 07:37:39;;;;;;;4.00;2.37;;;;;;;6.68;84.98;98969.44;10342065;28;20069;-73
2022/01/04 07:42:40;;;;;;;6.37;3.27;;;;;;;6.61;85.77;98960.53;10336054;28;20477;-73
2022/01/04 07:47:41;;;;;;;6.78;2.92;;;;;;;6.58;85.00;98960.88;10337658;28;20112;-74
2022/01/04 07:52:41;;;;;;;4.72;2.45;;;;;;;6.57;85.83;98960.06;10374876;28;20042;-74
2022/01/04 07:57:44;;;;;;;4.25;2.85;;;;;;;6.63;85.83;98963.84;10344598;28;20057;-74
2022/01/04 08:02:45;;;;;;;7.50;2.60;;;;;;;6.63;85.45;98953.31;10376640;28;20030;-74
2022/01/04 08:07:45;;;;;;;5.25;3.28;;;;;;;6.65;85.61;98958.41;10375455;28;20026;-74
2022/01/04 08:12:46;;;;;;;6.32;3.30;;;;;;;6.66;85.93;98957.44;10357955;28;20120;-74
2022/01/04 08:17:47;;;;;;;11.10;4.00;;;;;;;6.67;85.82;98952.00;10370521;28;20030;-74
2022/01/04 08:22:48;;;;;;;7.38;3.85;;;;;;;6.68;85.81;98953.66;10355360;28;20042;-74
2022/01/04 08:27:48;;;;;;;6.77;3.67;;;;;;;6.69;86.04;98951.81;10338612;28;20088;-74
2022/01/04 08:32:50;;;;;;;8.10;3.90;;;;;;;6.69;86.77;98930.75;10298888;28;20131;-73
2022/01/04 08:37:50;;;;;;;8.65;4.60;;;;;;;6.70;86.67;98941.13;10342840;28;20462;-74
2022/01/04 08:42:51;;;;;;;7.53;3.90;;;;;;;6.77;86.09;98931.56;10341208;28;20042;-74
2022/01/04 08:47:51;;;;;;;8.15;3.80;;;;;;;6.77;85.56;98913.13;10351025;28;20397;-74
2022/01/04 08:52:54;;;;;;;12.90;4.63;;;;;;;6.83;86.01;98920.38;10333587;28;20061;-74
2022/01/04 08:57:54;;;;;;;10.65;4.75;;;;;;;6.85;85.07;98917.59;10337176;28;20119;-74
2022/01/04 09:02:55;;;;;;;9.63;5.07;;;;;;;6.89;85.17;98911.81;10339362;28;20072;-72
2022/01/04 09:07:55;;;;;;;11.57;4.87;;;;;;;6.91;84.29;98909.00;10333455;28;20164;-73
2022/01/04 09:13:02;;;;;;;9.20;4.63;;;;;;;6.97;85.54;98890.72;10337426;28;20569;-73
2022/01/04 09:23:25;;;;;;;9.27;4.28;;;;;;;6.93;85.03;98883.31;10339700;28;20030;-72
2022/01/04 09:28:25;;;;;;;9.97;4.83;;;;;;;6.95;85.29;98879.53;10334156;28;20034;-73
2022/01/04 09:33:25;;;;;;;11.77;4.83;;;;;;;7.12;84.19;98880.31;10333435;28;20524;-74
2022/01/04 09:38:26;;;;;;;11.47;4.90;;;;;;;7.04;83.79;98881.13;10333916;28;20034;-75
2022/01/04 09:43:27;;;;;;;9.30;4.53;;;;;;;7.03;83.50;98884.78;10335032;28;20441;-74
2022/01/04 09:48:28;;;;;;;10.98;4.68;;;;;;;7.04;84.13;98881.13;10338054;28;20037;-72
2022/01/04 09:53:29;;;;;;;10.43;5.00;;;;;;;7.17;83.84;98881.44;10333668;28;20045;-73
2022/01/04 09:58:30;;;;;;;13.80;4.47;;;;;;;7.14;84.25;98865.97;10337094;28;20030;-73
2022/01/04 10:03:31;;;;;;;11.98;5.20;;;;;;;7.09;83.73;98862.19;10336421;28;20031;-74
2022/01/04 10:08:31;;;;;;;10.43;4.50;;;;;;;7.24;83.60;98857.03;10333839;28;20030;-73
2022/01/04 10:13:32;;;;;;;12.90;4.83;;;;;;;7.25;82.81;98863.97;10334218;28;20034;-73
2022/01/04 10:18:32;;;;;;;9.67;4.23;;;;;;;7.31;82.48;98874.63;10332404;28;20030;-74
2022/01/04 10:23:53;;;;;;;10.63;3.90;;;;;;;7.42;82.14;98886.63;10331671;28;20501;-73
2022/01/04 10:28:53;;;;;;;9.57;4.25;;;;;;;7.36;82.78;98882.03;10332548;28;20038;-72
2022/01/04 10:33:55;;;;;;;8.37;3.63;;;;;;;7.43;82.12;98864.53;10326649;28;20030;-73
2022/01/04 10:38:55;;;;;;;7.72;3.85;;;;;;;7.38;82.45;98838.69;10335103;28;20022;-73
2022/01/04 10:43:59;;;;;;;8.88;3.63;;;;;;;7.56;81.99;98839.25;10332549;28;20026;-74
2022/01/04 10:49:00;;;;;;;8.68;3.55;;;;;;;7.54;81.80;98833.34;10332229;28;20049;-73
2022/01/04 10:54:00;;;;;;;10.40;4.25;;;;;;;7.53;82.03;98833.50;10333305;28;20038;-73
2022/01/04 10:59:05;;;;;;;9.20;3.30;;;;;;;7.54;81.85;98830.69;10330627;28;20031;-73
2022/01/04 11:04:12;;;;;;;10.43;3.75;;;;;;;7.57;82.39;98824.25;10337340;28;20441;-73
2022/01/04 11:09:12;;;;;;;8.35;3.55;;;;;;;7.59;81.12;98812.53;10330759;28;20044;-73
2022/01/04 11:14:13;;;;;;;10.43;4.83;;;;;;;7.54;81.72;98800.84;10335566;28;20040;-73
2022/01/04 11:19:13;;;;;;;11.32;4.60;;;;;;;7.52;81.71;98794.94;10346248;28;20280;-72
2022/01/04 11:24:17;;;;;;;12.00;3.92;;;;;;;7.56;81.80;98770.69;10337718;28;20041;-74
2022/01/04 11:29:20;;;;;;;10.77;4.20;;;;;;;7.51;81.74;98788.00;10341168;28;20026;-74
2022/01/04 11:34:58;;;;;;;12.40;4.85;;;;;;;7.46;82.64;98785.91;10342229;28;20461;-74
2022/01/04 11:39:59;;;;;;;10.95;4.47;;;;;;;7.47;82.35;98782.28;10347371;28;20481;-75
2022/01/04 11:45:00;;;;;;;12.83;5.30;;;;;;;7.42;82.25;98773.25;10335688;28;20042;-73
2022/01/04 11:50:24;;;;;;;11.18;5.65;;;;;;;7.51;82.11;98766.91;10338040;28;20042;-73
2022/01/04 11:55:29;;;;;;;15.68;5.38;;;;;;;7.46;82.25;98764.81;10338850;28;20088;-75
2022/01/04 12:00:38;;;;;;;17.60;5.93;;;;;;;7.57;82.63;98768.88;10336360;28;20038;-73
2022/01/04 12:05:41;;;;;;;16.00;5.18;;;;;;;7.57;82.55;98751.22;10337450;28;20062;-73
2022/01/04 12:10:42;;;;;;;;;;;;;;;7.59;81.86;98737.84;10351626;28;20034;-74
2022/01/04 12:15:49;;;;;;;13.90;6.10;;;;;;;7.51;81.67;98732.63;10328419;28;19921;-73
2022/01/04 12:20:55;;;;;;;13.38;5.88;;;;;;;7.51;82.55;98730.81;10337093;28;20034;-75
2022/01/04 12:31:15;;;;;;;12.00;5.93;;;;;;;7.54;81.53;98724.38;10336233;28;20034;-74
2022/01/04 12:36:43;;;;;;;16.23;6.22;;;;;;;7.52;82.36;98734.28;10333133;28;20109;-74
2022/01/04 12:41:45;;;;;;;21.38;8.00;;;;;;;7.56;81.23;98732.94;10326819;28;20042;-74
2022/01/04 12:46:46;;;;;;;20.02;7.95;;;;;;;7.61;81.29;98730.59;10334241;28;20389;-75
2022/01/04 12:51:53;;;;;;;17.48;7.60;;;;;;;7.56;81.66;98728.47;10335403;28;20061;-75
2022/01/04 12:56:59;;;;;;;15.65;7.03;;;;;;;7.63;81.09;98718.06;10330193;28;20050;-75
2022/01/04 13:02:09;;;;;;;16.20;7.05;;;;;;;7.66;82.28;98723.00;10331382;28;20038;-74
2022/01/04 13:07:21;;;;;;;18.30;7.38;;;;;;;7.53;81.46;98704.25;10334504;28;20030;-74
2022/01/04 13:14:35;;;;;;;20.08;8.10;;;;;;;7.45;82.62;98706.97;6948163;27;187045;-75
2022/01/04 13:17:55;;;;;;;18.85;7.55;;;;;;;7.40;82.89;98704.84;6930831;28;20046;-74
2022/01/04 13:21:16;;;;;;;19.48;8.00;;;;;;;7.44;82.19;98719.34;6922531;28;20065;-74
2022/01/04 13:24:41;;;;;;;18.98;7.60;;;;;;;7.48;82.50;98727.72;6938878;28;20068;-75
2022/01/04 13:28:03;;;;;;;19.10;7.82;;;;;;;7.51;82.18;98724.72;6933919;28;20091;-74
2022/01/04 13:31:24;;;;;;;22.42;8.95;;;;;;;7.43;83.49;98736.16;6930307;28;20030;-74
2022/01/04 13:34:44;;;;;;;20.83;8.13;;;;;;;7.40;82.38;98728.59;6964342;28;20066;-75
2022/01/04 13:38:08;;;;;;;21.67;9.00;;;;;;;7.37;82.27;98728.09;6930221;28;20157;-73
2022/01/04 13:41:36;;;;;;;20.52;8.57;;;;;;;7.36;82.28;98726.50;6931057;28;20052;-75
2022/01/04 13:45:08;;;;;;;18.88;8.73;;;;;;;7.33;83.11;98718.91;6936690;28;20443;-76
2022/01/04 13:48:34;;;;;;;18.92;8.43;;;;;;;7.33;83.04;98716.28;6937273;28;20480;-75
2022/01/04 13:51:55;;;;;;;18.23;8.45;;;;;;;7.34;82.92;98723.22;6933349;28;20484;-75
2022/01/04 13:55:15;;;;;;;17.60;8.97;;;;;;;7.34;83.15;98717.94;6932075;28;20064;-75
2022/01/04 13:58:47;;;;;;;18.10;8.47;;;;;;;7.30;82.93;98712.19;6931092;28;20610;-75
2022/01/04 14:02:27;;;;;;;23.50;10.40;;;;;;;7.26;83.38;98710.06;6931954;28;20040;-75
2022/01/04 14:05:47;;;;;;;19.92;8.63;;;;;;;7.24;83.10;98706.78;6955953;28;20046;-73
2022/01/04 14:09:18;;;;;;;19.47;8.43;;;;;;;7.23;83.83;98700.69;6934334;28;20045;-74
2022/01/04 14:12:42;;;;;;;16.80;7.90;;;;;;;7.22;83.53;98703.50;6936433;28;20072;-74
2022/01/04 14:16:13;;;;;;;21.25;8.85;;;;;;;7.17;83.51;98696.91;6928147;28;20561;-74
2022/01/04 14:19:44;;;;;;;18.92;8.38;;;;;;;7.17;83.35;98691.66;6927332;28;20038;-75
2022/01/04 14:23:04;;;;;;;19.98;9.30;;;;;;;7.29;83.09;98688.63;6927420;28;20065;-74
2022/01/04 14:26:25;;;;;;;21.73;9.37;;;;;;;7.35;82.64;98682.66;6915556;28;20049;-74
2022/01/04 14:29:59;;;;;;;21.35;9.98;;;;;;;7.23;82.79;98682.22;6912362;28;20030;-75
2022/01/04 14:33:20;;;;;;;17.65;8.45;;;;;;;7.30;83.32;98695.53;6896250;28;20410;-75
2022/01/04 14:36:40;;;;;;;18.10;8.93;;;;;;;7.27;83.47;98694.06;6916623;28;20492;-74
2022/01/04 14:40:01;;;;;;;15.85;8.43;;;;;;;7.28;83.29;98697.53;6907273;28;20540;-76
2022/01/04 14:43:21;;;;;;;24.63;9.67;;;;;;;7.20;82.69;98711.59;6917012;28;20042;-76
2022/01/04 14:46:41;;;;;;;22.17;9.37;;;;;;;7.13;83.64;98714.09;6914424;28;20073;-71
2022/01/04 14:50:02;;;;;;;20.67;10.07;;;;;;;7.04;83.76;98723.03;6916114;28;20033;-72
2022/01/04 14:53:23;;;;;;;16.58;9.35;;;;;;;7.06;83.53;98726.34;6909476;28;20041;-71
2022/01/04 14:56:43;;;;;;;21.35;8.75;;;;;;;7.02;84.09;98738.19;6916733;28;20034;-72
2022/01/04 15:00:08;;;;;;;21.08;8.93;;;;;;;6.94;84.30;98777.75;6899898;28;20030;-73
2022/01/04 15:03:28;;;;;;;9.05;2.83;;;;;;;6.45;82.24;98768.34;6912488;28;20029;-73
2022/01/04 15:06:48;;;;;;;4.43;1.20;;;;;;;6.13;81.91;98784.19;6909128;28;20103;-74
2022/01/04 15:10:09;;;;;;;1.07;0.73;;;;;;;5.93;83.09;98794.22;6906328;28;20471;-72
2022/01/04 15:13:31;;;;;;;2.38;1.00;;;;;;;5.73;84.65;98792.88;6910788;28;20117;-72
2022/01/04 15:16:51;;;;;;;2.22;0.85;;;;;;;5.63;84.88;98795.63;6907536;28;20076;-73
2022/01/04 15:20:12;;;;;;;4.93;1.30;;;;;;;5.52;85.29;98790.66;6914212;28;20041;-73
2022/01/04 15:23:33;;;;;;;3.40;1.20;;;;;;;5.42;86.66;98803.16;6903280;28;20038;-73
2022/01/04 15:26:53;;;;;;;2.08;1.20;;;;;;;5.32;86.71;98799.84;6901081;28;20033;-73
2022/01/04 15:30:13;;;;;;;3.47;1.10;;;;;;;5.25;86.90;98780.41;6908322;28;20105;-74
2022/01/04 15:33:35;;;;;;;3.20;1.05;;;;;;;5.23;87.28;98806.03;6912033;28;20504;-74
2022/01/04 15:36:56;;;;;;;1.75;0.82;;;;;;;5.21;87.07;98792.25;6911103;28;20037;-74
2022/01/04 15:40:17;;;;;;;2.22;0.93;;;;;;;5.26;87.67;98796.03;6913998;28;20029;-74
2022/01/04 15:43:37;;;;;;;2.23;1.00;;;;;;;5.30;87.40;98794.72;6903345;28;20446;-75
2022/01/04 15:46:59;;;;;;;3.15;1.15;;;;;;;5.30;87.54;98810.50;6896784;28;20033;-75
2022/01/04 15:50:19;;;;;;;3.00;0.85;;;;;;;5.25;88.54;98814.59;6908886;28;20050;-74
2022/01/04 15:53:39;;;;;;;3.10;1.10;;;;;;;5.22;89.76;98826.22;6914709;28;20037;-74
2022/01/04 15:57:00;;;;;;;3.95;0.98;;;;;;;5.18;90.58;98819.66;6915760;28;126481;-72
2022/01/04 16:00:20;;;;;;;3.60;1.30;;;;;;;5.08;91.91;98836.53;6923548;28;20033;-70
2022/01/04 16:03:41;;;;;;;5.70;1.30;;;;;;;5.02;92.08;98830.09;6925668;28;20800;-71
2022/01/04 16:07:02;;;;;;;2.97;1.10;;;;;;;4.97;92.99;98836.81;6908246;28;20473;-71
2022/01/04 16:10:23;;;;;;;3.83;1.08;;;;;;;4.96;92.93;98830.72;6912399;28;20026;-72
2022/01/04 16:13:43;;;;;;;3.72;1.02;;;;;;;4.94;93.47;98837.13;6904158;28;20036;-72
2022/01/04 16:17:22;;;;;;;5.78;1.15;;;;;;;4.95;93.44;98844.81;6916091;28;20439;-72
2022/01/04 16:24:23;;;;;;;5.90;2.13;;;;;;;4.87;93.79;98842.16;6907173;28;20033;-71
2022/01/04 16:27:44;;;;;;;6.72;1.88;;;;;;;4.81;94.06;98845.41;6913239;28;20057;-72
2022/01/04 16:31:08;;;;;;;7.70;3.00;;;;;;;4.82;93.49;98850.50;6914311;28;20040;-72
2022/01/04 16:34:28;;;;;;;6.05;1.95;;;;;;;4.84;93.63;98852.16;6911449;28;20469;-72
2022/01/04 16:37:51;;;;;;;4.30;2.00;;;;;;;4.88;93.34;98859.56;6900437;28;20057;-70
2022/01/04 16:41:11;;;;;;;5.57;2.08;;;;;;;4.92;93.73;98865.34;6902821;28;20432;-73
2022/01/04 16:44:31;;;;;;;5.97;2.47;;;;;;;4.98;93.62;98875.19;6912246;28;20469;-71
2022/01/04 16:47:53;;;;;;;6.37;2.23;;;;;;;5.00;93.37;98879.31;6906515;28;20542;-72
2022/01/04 16:51:15;;;;;;;8.88;2.72;;;;;;;5.01;93.76;98880.16;6912857;28;20045;-72
2022/01/04 16:54:35;;;;;;;6.32;2.55;;;;;;;5.02;93.37;98887.88;6916271;28;20034;-72
2022/01/04 16:57:56;;;;;;;6.53;2.73;;;;;;;4.99;93.56;98882.13;6921636;28;20026;-72
2022/01/04 17:01:17;;;;;;;4.77;1.67;;;;;;;4.97;93.93;98889.34;6912771;28;20073;-71
2022/01/04 17:04:39;;;;;;;4.97;2.13;;;;;;;4.95;93.69;98880.75;6912919;28;20053;-72
2022/01/04 17:08:00;;;;;;;3.83;1.73;;;;;;;4.94;93.70;98885.22;6914741;28;20046;-72
2022/01/04 17:11:24;;;;;;;5.95;1.90;;;;;;;4.89;94.18;98894.53;6912661;28;20393;-72
2022/01/04 17:18:23;;;;;;;5.90;2.35;;;;;;;4.81;94.44;98917.13;6913486;28;20030;-72
2022/01/04 17:21:44;;;;;;;6.47;3.10;;;;;;;4.78;94.25;98911.38;6912939;28;20036;-71
2022/01/04 17:25:07;;;;;;;13.13;3.30;;;;;;;4.79;94.04;98897.25;6914069;28;20327;-72
2022/01/04 17:28:27;;;;;;;9.52;4.25;;;;;;;4.82;94.12;98912.69;6901611;28;20038;-71
2022/01/04 17:31:47;;;;;;;10.30;3.80;;;;;;;4.85;94.89;98920.28;6912829;28;20392;-72
2022/01/04 17:35:08;;;;;;;11.40;4.33;;;;;;;4.89;95.21;98926.06;6913001;28;20261;-73
2022/01/04 17:38:28;;;;;;;10.93;4.20;;;;;;;4.94;94.79;98921.16;6926008;28;20662;-72
2022/01/04 17:41:50;;;;;;;14.90;5.75;;;;;;;4.96;94.70;98922.66;6909951;28;20045;-72
2022/01/04 17:45:11;;;;;;;10.60;4.00;;;;;;;4.84;94.48;98917.81;6909936;28;20034;-72
2022/01/04 17:48:32;;;;;;;8.82;2.97;;;;;;;4.76;93.50;98924.63;6912502;28;20046;-72
2022/01/04 17:51:52;;;;;;;6.57;2.40;;;;;;;4.63;92.69;98931.25;6911581;28;20040;-72
2022/01/04 17:55:12;;;;;;;5.60;2.17;;;;;;;4.59;92.91;98917.59;6911991;28;20496;-73
2022/01/04 17:58:33;;;;;;;5.83;2.30;;;;;;;4.51;91.37;98922.78;6916299;28;20038;-72
2022/01/04 18:01:53;;;;;;;10.20;3.93;;;;;;;4.46;91.55;98943.41;6914165;28;20115;-73
2022/01/04 18:05:14;;;;;;;5.38;2.13;;;;;;;4.47;91.46;98952.13;6911311;28;20140;-73
2022/01/04 18:08:34;;;;;;;4.85;2.17;;;;;;;4.48;91.19;98961.66;6913413;28;20042;-74
2022/01/04 18:11:54;;;;;;;5.93;2.53;;;;;;;4.49;91.34;98964.13;6912738;28;20396;-74
2022/01/04 18:15:15;;;;;;;5.27;1.93;;;;;;;4.50;91.23;98970.19;6920955;28;20046;-74
2022/01/04 18:18:36;;;;;;;7.50;2.78;;;;;;;4.45;90.59;98972.44;6920535;28;20276;-74
2022/01/04 18:21:56;;;;;;;4.80;2.03;;;;;;;4.38;90.17;98971.38;6915878;28;20034;-73
2022/01/04 18:25:17;;;;;;;6.22;2.17;;;;;;;4.30;89.83;98958.19;6923373;28;20029;-74
2022/01/04 18:28:37;;;;;;;3.57;1.53;;;;;;;4.25;89.19;98960.44;6925636;28;20042;-75
2022/01/04 18:31:57;;;;;;;3.60;1.50;;;;;;;4.19;89.15;98981.06;6915980;28;20351;-74
2022/01/04 18:35:18;;;;;;;4.37;1.30;;;;;;;4.17;89.37;98990.88;6917809;28;20057;-74
2022/01/04 18:38:38;;;;;;;3.63;1.67;;;;;;;4.11;88.69;98991.47;6922617;28;20281;-74
2022/01/04 18:41:59;;;;;;;5.73;1.70;;;;;;;4.09;88.70;98989.97;6919003;28;20038;-73
2022/01/04 18:45:20;;;;;;;5.40;1.88;;;;;;;4.13;88.82;99004.44;6928152;28;20083;-72
2022/01/04 18:48:41;;;;;;;4.97;1.30;;;;;;;4.11;88.27;98998.50;6930817;28;20041;-73
2022/01/04 18:52:03;;;;;;;4.32;1.45;;;;;;;4.08;88.93;99004.03;6932034;28;20042;-74
2022/01/04 18:55:23;;;;;;;7.15;1.88;;;;;;;4.02;89.24;99002.81;6919009;28;20041;-73
2022/01/04 18:58:43;;;;;;;3.90;1.73;;;;;;;4.01;88.56;99016.09;6920740;28;20029;-74
2022/01/04 19:02:05;;;;;;;6.37;1.30;;;;;;;3.98;88.94;99008.50;6915361;28;20064;-73
2022/01/04 19:05:26;;;;;;;4.60;1.75;;;;;;;3.95;89.66;99016.66;6925816;28;20045;-74
2022/01/04 19:08:47;;;;;;;7.55;1.95;;;;;;;3.90;89.84;99024.16;6927478;28;20537;-74
2022/01/04 19:12:08;;;;;;;4.97;1.43;;;;;;;3.86;89.06;99022.81;6921490;28;20165;-73
2022/01/04 19:15:28;;;;;;;6.80;1.73;;;;;;;3.79;88.50;99025.16;6924141;28;20034;-74
2022/01/04 19:18:48;;;;;;;4.15;1.63;;;;;;;3.75;87.89;99020.38;6927244;28;20517;-73
2022/01/04 19:24:45;;;;;;;7.97;2.38;;;;;;;3.73;88.26;99035.41;6084022;28;188232;-74
2022/01/04 19:27:41;;;;;;;4.47;2.10;;;;;;;3.61;88.70;99034.78;6103502;28;20051;-74
2022/01/04 19:30:36;;;;;;;7.68;1.50;;;;;;;3.50;88.34;99038.41;6095929;28;20128;-74
2022/01/04 19:36:27;;;;;;;5.65;1.75;;;;;;;3.48;88.06;99042.94;6098508;28;20071;-75
2022/01/04 19:39:24;;;;;;;4.53;1.60;;;;;;;3.48;88.13;99037.69;6095112;28;20116;-74
2022/01/04 19:42:20;;;;;;;5.18;1.60;;;;;;;3.45;87.72;99045.81;6103067;28;20328;-75
2022/01/04 19:45:16;;;;;;;9.75;1.83;;;;;;;3.48;87.04;99045.56;6091455;28;20116;-74
2022/01/04 19:48:11;;;;;;;5.32;1.67;;;;;;;3.43;87.35;99031.22;6091931;28;20029;-74
2022/01/04 19:51:07;;;;;;;3.73;1.37;;;;;;;3.35;87.60;99034.56;6096943;28;20037;-74
2022/01/04 19:54:03;;;;;;;3.67;1.20;;;;;;;3.26;87.43;99024.91;6097338;28;20283;-74
2022/01/04 19:56:58;;;;;;;3.58;1.40;;;;;;;3.24;87.66;99032.09;6093124;28;20029;-75
2022/01/04 19:59:53;;;;;;;5.90;1.53;;;;;;;3.14;87.49;99027.84;6094583;28;20476;-74
2022/01/04 20:02:49;;;;;;;4.07;1.40;;;;;;;3.05;87.91;99034.75;6096298;28;20319;-75
2022/01/04 20:05:45;;;;;;;4.47;2.60;;;;;;;3.03;87.92;99044.53;6093367;28;20044;-75
2022/01/04 20:08:44;;;;;;;5.07;2.03;;;;;;;2.97;88.08;99048.53;6097397;28;20028;-74
2022/01/04 20:11:40;;;;;;;5.00;1.83;;;;;;;2.90;88.40;99049.25;6094110;28;20128;-75
2022/01/04 20:14:37;;;;;;;4.80;1.33;;;;;;;2.82;88.57;99046.50;6096767;28;20033;-75
2022/01/04 20:17:32;;;;;;;5.47;1.45;;;;;;;2.81;88.99;99039.59;6096653;28;20060;-75
2022/01/04 20:20:28;;;;;;;8.60;2.58;;;;;;;2.98;89.03;99060.69;6097610;28;20503;-75
2022/01/04 20:23:24;;;;;;;6.63;2.55;;;;;;;2.95;88.78;99060.13;6092224;28;20503;-73
2022/01/04 20:26:20;;;;;;;7.13;2.03;;;;;;;2.87;88.67;99058.19;6082108;28;20057;-73